Time;durP1;ratioP1;P1;durP2;ratioP2;P2;SDS_P1;SDS_P2;PMS_P1;PMS_P2;Temp;Humidity;BMP_temperature;BMP_pressure;BME280_temperature;BME280_humidity;BME280_pressure;Samples;Min_cycle;Max_cycle;Signal;HPM_P1;HPM_P2
2021/07/01 00:00:22;;;;;;;;;5.50;5.00;;;;;19.42;82.75;98901.91;3504248;40;13185;-67
2021/07/01 00:02:49;;;;;;;;;9.25;6.00;;;;;19.16;82.99;98897.47;3495832;41;13194;-67
2021/07/01 00:05:17;;;;;;;;;5.00;4.75;;;;;19.24;82.84;98900.19;3504151;41;13097;-67
2021/07/01 00:07:46;;;;;;;;;5.00;5.00;;;;;19.38;81.13;98900.53;3495826;41;13497;-66
2021/07/01 00:10:24;;;;;;;;;5.50;5.00;;;;;19.25;82.04;98904.63;3498856;41;13080;-66
2021/07/01 00:12:53;;;;;;;;;4.75;4.75;;;;;18.99;83.75;98915.66;3503687;41;13679;-66
2021/07/01 00:15:32;;;;;;;;;5.25;4.25;;;;;19.08;83.56;98914.63;3498269;40;13499;-67
2021/07/01 00:18:02;;;;;;;;;6.50;6.50;;;;;19.08;83.41;98922.81;3497406;40;13475;-67
2021/07/01 00:20:30;;;;;;;;;6.00;4.25;;;;;18.93;83.13;98929.94;3495262;41;13963;-65
2021/07/01 00:22:57;;;;;;;;;6.50;5.00;;;;;19.14;82.53;98925.88;3495248;41;13509;-66
2021/07/01 00:25:25;;;;;;;;;7.75;6.00;;;;;18.98;83.46;98927.53;3499529;40;13548;-66
2021/07/01 00:27:53;;;;;;;;;5.00;4.00;;;;;19.16;81.35;98918.41;3504787;41;13537;-66
2021/07/01 00:30:22;;;;;;;;;6.25;5.25;;;;;19.05;82.70;98914.97;3504576;40;13963;-66
2021/07/01 00:32:50;;;;;;;;;5.00;5.00;;;;;19.42;80.71;98904.63;3495214;41;13392;-65
2021/07/01 00:35:19;;;;;;;;;4.00;4.00;;;;;19.14;81.75;98893.22;3507556;40;13337;-67
2021/07/01 00:37:46;;;;;;;;;4.00;4.00;;;;;18.80;84.91;98883.31;3514176;40;13200;-66
2021/07/01 00:40:14;;;;;;;;;4.00;4.00;;;;;18.14;87.01;98874.94;3510869;40;13371;-68
2021/07/01 00:42:42;;;;;;;;;4.25;4.25;;;;;18.73;83.88;98874.94;3494717;40;13950;-67
2021/07/01 00:45:10;;;;;;;;;8.50;5.25;;;;;18.88;83.83;98872.47;3507146;40;13910;-66
2021/07/01 00:47:37;;;;;;;;;4.50;4.25;;;;;18.54;84.22;98875.25;3497445;40;13954;-68
2021/07/01 00:50:10;;;;;;;;;5.00;5.00;;;;;18.19;88.44;98869.84;3507198;40;14131;-68
2021/07/01 00:52:39;;;;;;;;;6.00;6.00;;;;;17.31;90.73;98874.53;3495430;41;13949;-67
2021/07/01 00:55:12;;;;;;;;;3.25;3.25;;;;;17.68;91.65;98885.16;3508312;40;13970;-68
2021/07/01 00:57:39;;;;;;;;;6.75;6.00;;;;;17.31;93.51;98883.50;3494524;40;13911;-67
2021/07/01 01:00:23;;;;;;;;;7.00;6.25;;;;;17.16;93.18;98895.94;3504516;40;15053;-67
2021/07/01 01:02:51;;;;;;;;;5.25;4.00;;;;;17.27;92.95;98909.28;3487868;41;13936;-67
2021/07/01 01:05:18;;;;;;;;;5.00;5.00;;;;;17.04;93.80;98913.47;3496162;40;13986;-67
2021/07/01 01:07:46;;;;;;;;;8.00;7.25;;;;;17.67;92.72;98926.03;3508362;40;14116;-68
2021/07/01 01:10:14;;;;;;;;;7.25;7.25;;;;;17.38;93.10;98931.72;3502898;40;13942;-66
2021/07/01 01:12:41;;;;;;;;;6.00;6.00;;;;;17.88;91.15;98937.41;3502123;40;14120;-66
2021/07/01 01:15:09;;;;;;;;;6.50;5.00;;;;;18.34;88.42;98942.59;3502435;40;14298;-68
2021/07/01 01:17:37;;;;;;;;;4.00;4.00;;;;;18.34;86.79;98937.16;3494902;41;13968;-68
2021/07/01 01:20:08;;;;;;;;;7.25;5.50;;;;;18.41;86.77;98935.50;3503998;40;14025;-66
2021/07/01 01:22:35;;;;;;;;;4.50;4.00;;;;;18.10;87.24;98937.88;3503194;41;13927;-67
2021/07/01 01:25:04;;;;;;;;;6.00;5.50;;;;;18.17;86.47;98950.69;3504721;40;13967;-67
2021/07/01 01:27:32;;;;;;;;;6.75;4.75;;;;;17.94;88.90;98952.22;3497536;40;13936;-68
2021/07/01 01:30:00;;;;;;;;;5.25;5.00;;;;;17.96;90.39;98958.34;3486414;41;13952;-67
2021/07/01 01:32:27;;;;;;;;;6.00;6.00;;;;;17.81;89.66;98968.09;3495019;41;14175;-67
2021/07/01 01:34:54;;;;;;;;;5.00;4.00;;;;;18.35;85.63;98972.34;3503704;40;15471;-67
2021/07/01 01:37:22;;;;;;;;;4.25;4.25;;;;;17.93;87.16;98974.94;3504134;40;13936;-66
2021/07/01 01:39:50;;;;;;;;;6.50;5.50;;;;;18.19;87.96;98975.81;3486412;41;14141;-66
2021/07/01 01:42:19;;;;;;;;;6.50;6.00;;;;;18.30;86.08;98974.69;3494998;41;14185;-67
2021/07/01 01:44:46;;;;;;;;;5.00;5.00;;;;;17.98;87.28;98975.31;3503419;40;13926;-67
2021/07/01 01:47:19;;;;;;;;;4.00;3.25;;;;;18.34;85.59;98967.06;3503632;40;14427;-68
2021/07/01 01:49:50;;;;;;;;;7.50;5.00;;;;;18.14;85.81;98970.03;3494827;41;13935;-67
2021/07/01 01:52:18;;;;;;;;;6.50;5.50;;;;;18.16;86.28;98975.28;3504104;41;13948;-67
2021/07/01 01:54:46;;;;;;;;;4.00;4.00;;;;;17.88;88.66;98974.59;3504632;40;13932;-68
2021/07/01 01:57:13;;;;;;;;;5.00;5.00;;;;;18.06;87.51;98986.28;3500369;40;13938;-67
2021/07/01 01:59:53;;;;;;;;;5.00;5.00;;;;;17.64;88.77;98978.78;3496189;41;13913;-67
2021/07/01 02:02:20;;;;;;;;;5.00;5.00;;;;;17.72;89.67;98968.00;3495000;41;14155;-67
2021/07/01 02:04:48;;;;;;;;;4.75;4.75;;;;;18.09;86.15;98975.06;3503967;40;14089;-67
2021/07/01 02:07:15;;;;;;;;;5.00;4.50;;;;;17.71;88.03;98966.28;3503673;41;14170;-67
2021/07/01 02:09:42;;;;;;;;;6.25;4.50;;;;;17.68;87.83;98974.75;3494867;41;14014;-67
2021/07/01 02:12:10;;;;;;;;;4.25;4.25;;;;;17.43;88.27;98972.81;3503805;40;14130;-67
2021/07/01 02:14:37;;;;;;;;;5.25;5.00;;;;;17.64;87.59;98964.34;3505635;40;14128;-67
2021/07/01 02:17:05;;;;;;;;;5.75;5.75;;;;;17.78;88.10;98972.78;3503560;41;13959;-66
2021/07/01 02:19:32;;;;;;;;;5.00;5.00;;;;;17.42;88.29;98960.25;3495302;41;13935;-68
2021/07/01 02:21:59;;;;;;;;;7.00;5.00;;;;;17.30;88.82;98962.38;3496269;41;13977;-67
2021/07/01 02:24:27;;;;;;;;;4.25;4.00;;;;;17.33;88.72;98962.91;3505364;40;13964;-67
2021/07/01 02:26:54;;;;;;;;;5.00;4.50;;;;;17.41;89.03;98964.00;3505127;41;14502;-67
2021/07/01 02:29:21;;;;;;;;;4.25;4.25;;;;;17.66;87.24;98973.19;3496003;41;13943;-66
2021/07/01 02:31:49;;;;;;;;;4.00;4.00;;;;;17.80;85.79;98969.06;3506841;40;14176;-67
2021/07/01 02:34:16;;;;;;;;;4.75;4.75;;;;;17.58;88.02;98975.84;3502191;40;14111;-66
2021/07/01 02:36:44;;;;;;;;;4.25;3.50;;;;;17.55;87.90;98971.56;3511159;40;13957;-67
2021/07/01 02:39:11;;;;;;;;;4.75;4.00;;;;;17.33;88.21;98981.91;3495662;41;14138;-66
2021/07/01 02:41:38;;;;;;;;;5.00;5.00;;;;;17.28;89.54;98980.66;3505217;41;14138;-67
2021/07/01 02:44:06;;;;;;;;;4.00;4.00;;;;;17.22;88.47;98975.84;3503999;40;13930;-68
2021/07/01 02:46:33;;;;;;;;;4.00;4.00;;;;;17.50;87.52;98973.91;3504418;40;14224;-66
2021/07/01 02:49:01;;;;;;;;;4.00;4.00;;;;;17.46;88.88;98969.81;3493448;41;13952;-65
2021/07/01 02:51:28;;;;;;;;;3.00;3.00;;;;;17.70;85.53;98977.31;3488156;41;13951;-66
2021/07/01 02:53:55;;;;;;;;;4.00;3.50;;;;;17.64;85.91;98970.66;3506639;40;13934;-67
2021/07/01 02:56:23;;;;;;;;;3.00;3.00;;;;;17.64;85.87;98970.66;3514636;40;14169;-68
2021/07/01 02:58:50;;;;;;;;;4.00;4.00;;;;;17.77;86.56;98971.09;3505541;40;14089;-67
2021/07/01 03:01:18;;;;;;;;;3.25;3.25;;;;;17.48;87.93;98971.38;3504036;40;14144;-69
2021/07/01 03:03:45;;;;;;;;;4.00;4.00;;;;;17.50;86.85;98958.47;3504454;40;13956;-67
2021/07/01 03:06:13;;;;;;;;;5.00;4.00;;;;;17.75;86.03;98964.97;3514629;40;13936;-66
2021/07/01 03:08:40;;;;;;;;;4.00;3.75;;;;;17.38;88.61;98958.84;3511460;40;13927;-67
2021/07/01 03:11:08;;;;;;;;;3.00;3.00;;;;;17.38;87.89;98956.16;3505634;40;13974;-68
2021/07/01 03:13:35;;;;;;;;;5.00;5.00;;;;;17.85;87.46;98962.19;3508179;40;14661;-66
2021/07/01 03:16:03;;;;;;;;;3.00;3.00;;;;;17.99;86.55;98990.63;3504337;40;13904;-67
2021/07/01 03:18:30;;;;;;;;;3.75;3.75;;;;;17.58;88.37;98982.13;3505481;41;13942;-67
2021/07/01 03:20:58;;;;;;;;;3.00;3.00;;;;;17.79;86.97;98981.81;3496022;41;13984;-67
2021/07/01 03:23:25;;;;;;;;;3.75;3.75;;;;;17.66;87.13;98990.31;3504772;40;13947;-65
2021/07/01 03:25:53;;;;;;;;;5.25;4.75;;;;;17.53;88.51;98981.72;3513113;40;14043;-67
2021/07/01 03:28:20;;;;;;;;;3.50;3.50;;;;;17.81;87.46;98965.38;3504693;40;13932;-67
2021/07/01 03:30:48;;;;;;;;;5.00;5.00;;;;;17.95;86.64;98989.22;3504178;40;13951;-67
2021/07/01 03:33:15;;;;;;;;;4.50;4.50;;;;;17.53;87.96;98968.16;3504764;41;14133;-67
2021/07/01 03:35:42;;;;;;;;;5.00;5.00;;;;;17.53;88.49;98974.44;3505171;40;14435;-67
2021/07/01 03:38:10;;;;;;;;;5.25;4.00;;;;;18.01;86.87;98985.00;3504687;41;13914;-66
2021/07/01 03:40:37;;;;;;;;;4.75;4.00;;;;;17.80;87.28;98983.53;3496035;41;14513;-67
2021/07/01 03:43:05;;;;;;;;;3.00;3.00;;;;;18.05;85.42;98992.69;3495694;41;15061;-66
2021/07/01 03:45:32;;;;;;;;;5.50;4.00;;;;;18.02;85.99;98987.59;3510201;40;14178;-66
2021/07/01 03:47:59;;;;;;;;;4.75;4.50;;;;;17.57;88.12;98980.41;3505965;40;13950;-66
2021/07/01 03:50:27;;;;;;;;;5.50;5.00;;;;;17.68;87.08;98992.91;3499701;41;13946;-68
2021/07/01 03:52:54;;;;;;;;;4.50;3.00;;;;;17.91;85.82;98998.72;3504888;40;13959;-66
2021/07/01 03:55:21;;;;;;;;;5.00;4.00;;;;;17.74;88.34;99000.41;3510483;40;13912;-67
2021/07/01 03:57:49;;;;;;;;;4.50;3.50;;;;;17.94;85.56;99001.13;3508035;40;13933;-67
2021/07/01 04:00:17;;;;;;;;;5.50;3.50;;;;;17.76;87.16;99001.94;3504826;41;13949;-67
2021/07/01 04:02:44;;;;;;;;;4.00;4.00;;;;;17.81;86.93;98995.25;3495706;40;13962;-67
2021/07/01 04:05:14;;;;;;;;;4.25;4.25;;;;;18.09;85.89;99001.38;3495491;41;13978;-67
2021/07/01 04:07:44;;;;;;;;;6.25;4.25;;;;;17.73;88.00;98991.41;3495616;40;14143;-67
2021/07/01 04:10:15;;;;;;;;;4.00;4.00;;;;;18.04;87.46;98990.16;3495035;41;13959;-67
2021/07/01 04:12:43;;;;;;;;;5.25;5.00;;;;;18.51;84.49;98995.16;3504589;40;13962;-67
2021/07/01 04:15:11;;;;;;;;;7.00;3.75;;;;;18.42;85.28;98999.72;3497615;41;13958;-66
2021/07/01 04:17:38;;;;;;;;;4.75;4.50;;;;;18.24;85.87;98996.22;3495744;41;13964;-67
2021/07/01 04:20:08;;;;;;;;;4.00;3.00;;;;;18.45;84.28;98980.34;3495051;41;13917;-67
2021/07/01 04:22:36;;;;;;;;;5.75;4.00;;;;;18.43;84.58;98998.69;3495358;41;14505;-66
2021/07/01 04:25:04;;;;;;;;;6.75;5.00;;;;;18.60;84.02;99000.50;3508700;40;14902;-65
2021/07/01 04:27:31;;;;;;;;;5.00;5.00;;;;;18.40;84.80;98993.59;3505179;40;14100;-66
2021/07/01 04:29:59;;;;;;;;;5.00;5.00;;;;;18.42;84.56;99002.44;3500338;41;13969;-65
2021/07/01 04:32:27;;;;;;;;;5.50;5.00;;;;;18.28;85.79;99000.31;3503949;40;13360;-66
2021/07/01 04:34:54;;;;;;;;;5.25;5.25;;;;;18.39;84.33;98997.31;3498699;40;14115;-67
2021/07/01 04:37:21;;;;;;;;;5.75;5.75;;;;;18.64;82.05;99007.31;3514817;40;13927;-66
2021/07/01 04:39:49;;;;;;;;;5.50;5.50;;;;;18.43;83.52;99004.13;3505662;40;14038;-67
2021/07/01 04:42:19;;;;;;;;;4.25;4.25;;;;;19.05;81.76;99004.78;3505057;41;14055;-66
2021/07/01 04:44:47;;;;;;;;;6.00;4.25;;;;;18.59;81.86;99004.25;3507204;40;13554;-62
2021/07/01 04:47:14;;;;;;;;;3.25;3.25;;;;;18.72;82.65;99008.34;3503929;40;13890;-67
2021/07/01 04:49:41;;;;;;;;;6.75;4.25;;;;;19.31;78.34;99017.44;3495068;41;14148;-66
2021/07/01 04:52:09;;;;;;;;;5.00;4.75;;;;;20.38;73.35;99027.34;3504495;41;13506;-65
2021/07/01 04:54:36;;;;;;;;;3.50;3.00;;;;;20.04;75.32;99013.09;3504540;40;13041;-68
2021/07/01 04:57:03;;;;;;;;;5.75;5.00;;;;;18.53;81.69;99021.19;3499292;41;12813;-67
2021/07/01 04:59:31;;;;;;;;;3.50;3.50;;;;;19.00;79.77;99026.19;3503618;40;13124;-66
2021/07/01 05:01:58;;;;;;;;;4.25;4.25;;;;;18.89;80.09;99031.94;3501529;40;12453;-67
2021/07/01 05:04:26;;;;;;;;;5.00;4.50;;;;;18.92;79.27;99026.16;3504352;40;12883;-66
2021/07/01 05:06:53;;;;;;;;;3.00;2.75;;;;;19.23;78.87;99036.47;3513849;40;13648;-65
2021/07/01 05:09:20;;;;;;;;;4.25;4.25;;;;;19.16;77.75;99040.88;3498986;40;12794;-67
2021/07/01 05:11:48;;;;;;;;;4.50;4.00;;;;;19.28;78.59;99034.94;3503722;40;13098;-67
2021/07/01 05:14:15;;;;;;;;;4.00;4.00;;;;;19.44;78.65;99039.56;3503324;41;13096;-66
2021/07/01 05:16:42;;;;;;;;;5.00;3.00;;;;;19.59;76.26;99042.50;3507749;40;12935;-67
2021/07/01 05:19:10;;;;;;;;;3.00;3.00;;;;;19.62;75.88;99041.31;3513261;40;13071;-67
2021/07/01 05:21:37;;;;;;;;;2.50;2.50;;;;;19.79;77.23;99040.31;3508064;40;12545;-68
2021/07/01 05:24:05;;;;;;;;;4.25;4.25;;;;;20.04;75.03;99048.53;3503460;41;12658;-66
2021/07/01 05:26:34;;;;;;;;;3.00;3.00;;;;;20.21;73.18;99041.19;3497542;41;13001;-66
2021/07/01 05:29:01;;;;;;;;;5.25;3.50;;;;;20.30;73.26;99042.84;3494782;41;12405;-67
2021/07/01 05:31:48;;;;;;;;;2.00;2.00;;;;;20.15;74.29;99050.91;3502223;41;12540;-67
2021/07/01 05:34:16;;;;;;;;;3.50;3.50;;;;;20.23;74.00;99050.03;3493069;40;12351;-68
2021/07/01 05:36:43;;;;;;;;;4.00;3.00;;;;;20.46;72.71;99050.16;3501914;40;12425;-68
2021/07/01 05:39:10;;;;;;;;;3.00;3.00;;;;;20.43;72.98;99056.81;3508198;40;12837;-66
2021/07/01 05:41:38;;;;;;;;;24.00;20.50;;;;;20.86;71.56;99057.44;3502774;40;12289;-67
2021/07/01 05:44:05;;;;;;;;;4.00;3.00;;;;;20.71;71.80;99051.84;3495012;41;13997;-67
2021/07/01 05:46:33;;;;;;;;;2.25;2.25;;;;;21.23;70.35;99056.75;3495045;40;12397;-65
2021/07/01 05:49:04;;;;;;;;;4.00;4.00;;;;;21.40;69.38;99062.16;3502518;40;12288;-68
2021/07/01 05:51:34;;;;;;;;;3.50;2.00;;;;;21.11;69.52;99055.44;3494154;41;11929;-66
2021/07/01 05:56:42;;;;;;;;;2.00;2.00;;;;;21.36;68.92;99060.78;3506899;40;11588;-67
2021/07/01 05:59:10;;;;;;;;;4.75;3.00;;;;;21.25;70.01;99060.16;3510298;40;11574;-67
2021/07/01 06:01:39;;;;;;;;;3.50;3.00;;;;;21.61;68.80;99058.78;3496642;41;12078;-68
2021/07/01 06:04:07;;;;;;;;;2.00;2.00;;;;;21.91;67.87;99070.72;3504443;41;11723;-68
2021/07/01 06:06:38;;;;;;;;;4.75;3.50;;;;;21.76;68.50;99064.31;3502233;40;11335;-67
2021/07/01 06:09:06;;;;;;;;;2.00;2.00;;;;;21.98;67.85;99066.19;3505660;40;11324;-67
2021/07/01 06:11:36;;;;;;;;;2.00;2.00;;;;;22.24;66.79;99070.47;3514493;40;11035;-67
2021/07/01 06:14:06;;;;;;;;;3.25;3.25;;;;;22.01;67.22;99070.44;3496135;41;11220;-68
2021/07/01 06:16:36;;;;;;;;;3.00;3.00;;;;;22.08;66.09;99079.63;3507278;40;10753;-68
2021/07/01 06:19:05;;;;;;;;;3.25;2.00;;;;;22.69;64.28;99072.22;3497186;41;11182;-65
2021/07/01 06:21:33;;;;;;;;;3.00;2.00;;;;;22.60;64.30;99075.25;3505437;40;10866;-68
2021/07/01 06:24:02;;;;;;;;;2.00;2.00;;;;;22.87;63.77;99087.44;3504822;40;10858;-67
2021/07/01 06:26:31;;;;;;;;;2.00;2.00;;;;;22.71;63.74;99088.47;3504835;41;10657;-68
2021/07/01 06:28:58;;;;;;;;;3.00;3.00;;;;;22.86;63.98;99086.59;3505259;40;10350;-68
2021/07/01 06:31:25;;;;;;;;;1.33;1.33;;;;;22.75;62.90;99079.72;3514643;40;10620;-66
2021/07/01 06:33:53;;;;;;;;;3.00;2.67;;;;;23.05;64.07;99078.88;3504898;40;10117;-67
2021/07/01 06:36:24;;;;;;;;;2.67;1.67;;;;;23.87;59.51;99084.94;3514615;40;10019;-67
2021/07/01 06:39:00;;;;;;;;;1.67;1.67;;;;;23.40;61.16;99094.50;3505574;40;10097;-67
2021/07/01 06:41:28;;;;;;;;;2.67;2.67;;;;;23.22;62.20;99094.06;3512834;40;9966;-69
2021/07/01 06:43:56;;;;;;;;;2.00;2.00;;;;;24.20;58.68;99094.56;3500212;41;10435;-68
2021/07/01 06:46:30;;;;;;;;;3.00;1.67;;;;;24.07;58.23;99100.78;3510906;40;9876;-69
2021/07/01 06:49:01;;;;;;;;;4.00;4.00;;;;;23.76;60.00;99090.97;3505240;40;9970;-68
2021/07/01 06:51:39;;;;;;;;;4.67;2.33;;;;;24.32;58.09;99093.81;3498250;41;9839;-69
2021/07/01 06:54:17;;;;;;;;;2.00;2.00;;;;;23.83;59.27;99105.59;3498015;40;10000;-67
2021/07/01 06:56:45;;;;;;;;;3.00;3.00;;;;;24.23;57.29;99106.00;3513414;40;9765;-68
2021/07/01 06:59:14;;;;;;;;;3.00;3.00;;;;;24.25;57.71;99100.28;3502390;40;9801;-68
2021/07/01 07:01:42;;;;;;;;;2.67;2.67;;;;;24.82;56.15;99104.78;3505072;40;9761;-69
2021/07/01 07:04:18;;;;;;;;;3.00;3.00;;;;;24.95;57.16;99109.53;3514248;40;9828;-67
2021/07/01 07:06:47;;;;;;;;;5.67;3.00;;;;;25.01;57.04;99105.97;3503203;40;9767;-66
2021/07/01 07:09:16;;;;;;;;;3.00;3.00;;;;;25.45;55.08;99121.25;3504422;40;9775;-66
2021/07/01 07:11:44;;;;;;;;;3.00;3.00;;;;;24.91;56.56;99111.84;3506994;40;9764;-66
2021/07/01 07:14:12;;;;;;;;;4.00;3.00;;;;;25.70;55.32;99117.94;3498749;41;9768;-65
2021/07/01 07:16:42;;;;;;;;;4.75;3.00;;;;;25.03;56.71;99120.34;3505604;40;9745;-68
2021/07/01 07:19:11;;;;;;;;;2.25;2.00;;;;;25.25;56.73;99125.78;3513884;40;9740;-66
2021/07/01 07:21:45;;;;;;;;;2.00;2.00;;;;;25.72;55.96;99121.34;3498309;41;9696;-68
2021/07/01 07:24:17;;;;;;;;;2.00;2.00;;;;;26.02;52.37;99128.25;3496211;41;9787;-68
2021/07/01 07:26:54;;;;;;;;;3.00;2.75;;;;;25.21;55.96;99130.84;3496013;41;9692;-69
2021/07/01 07:29:32;;;;;;;;;2.25;2.25;;;;;25.86;54.56;99131.41;3496544;40;10005;-67
2021/07/01 07:32:07;;;;;;;;;2.00;2.00;;;;;25.81;52.63;99136.63;3506216;40;9751;-69
2021/07/01 07:34:34;;;;;;;;;3.25;3.25;;;;;25.38;53.86;99140.47;3503232;40;9698;-69
2021/07/01 07:37:02;;;;;;;;;2.50;2.50;;;;;25.52;53.83;99133.13;3503661;40;10140;-68
2021/07/01 07:39:32;;;;;;;;;3.50;2.50;;;;;25.58;54.24;99145.22;3501904;40;9771;-67
2021/07/01 07:42:00;;;;;;;;;5.25;3.00;;;;;24.87;55.30;99134.41;3489965;40;9756;-68
2021/07/01 07:44:28;;;;;;;;;5.00;3.00;;;;;25.94;52.55;99146.88;3497080;41;9711;-67
2021/07/01 07:46:56;;;;;;;;;3.25;3.25;;;;;25.59;52.21;99144.13;3494629;41;9989;-68
2021/07/01 07:49:23;;;;;;;;;4.25;3.25;;;;;25.04;53.25;99146.81;3492506;41;9816;-72
2021/07/01 07:51:52;;;;;;;;;2.75;2.75;;;;;25.44;52.93;99147.06;3495281;41;9932;-67
2021/07/01 07:54:25;;;;;;;;;2.00;2.00;;;;;25.37;53.80;99147.00;3499214;40;9757;-68
2021/07/01 07:56:56;;;;;;;;;3.00;3.00;;;;;25.07;55.16;99132.66;3504748;40;9768;-70
2021/07/01 07:59:30;;;;;;;;;2.75;2.75;;;;;25.31;53.48;99142.34;3495854;41;10105;-69
2021/07/01 08:02:01;;;;;;;;;2.00;2.00;;;;;26.06;51.50;99137.78;3496041;41;9755;-70
2021/07/01 08:04:34;;;;;;;;;5.50;3.00;;;;;25.57;52.14;99143.53;3498178;41;9832;-70
2021/07/01 08:07:04;;;;;;;;;2.00;2.00;;;;;25.74;52.97;99139.34;3504309;40;9784;-69
2021/07/01 08:09:35;;;;;;;;;3.00;3.00;;;;;25.07;54.48;99135.41;3505595;40;9958;-69
2021/07/01 08:12:03;;;;;;;;;4.25;3.75;;;;;25.43;54.50;99139.00;3494830;41;9955;-69
2021/07/01 08:14:30;;;;;;;;;3.25;3.25;;;;;25.25;53.32;99137.66;3502858;40;9702;-68
2021/07/01 08:16:58;;;;;;;;;3.00;3.00;;;;;25.62;52.51;99144.59;3494743;41;9748;-69
2021/07/01 08:19:26;;;;;;;;;3.75;3.00;;;;;25.04;53.37;99135.81;3495807;41;9776;-67
2021/07/01 08:21:53;;;;;;;;;6.50;4.00;;;;;25.34;52.71;99136.44;3495363;41;10030;-67
2021/07/01 08:24:20;;;;;;;;;4.25;3.75;;;;;26.02;51.64;99136.50;3495667;41;9691;-69
2021/07/01 08:26:51;;;;;;;;;2.50;2.50;;;;;25.68;52.25;99147.59;3511848;40;9769;-69
2021/07/01 08:29:20;;;;;;;;;4.00;4.00;;;;;25.76;51.77;99140.00;3493783;41;9782;-68
2021/07/01 08:31:48;;;;;;;;;1.50;1.50;;;;;26.19;51.50;99153.47;3486359;41;9997;-67
2021/07/01 08:34:22;;;;;;;;;2.25;2.00;;;;;25.86;52.10;99153.41;3494142;40;10044;-68
2021/07/01 08:36:50;;;;;;;;;3.75;3.00;;;;;25.74;51.14;99146.75;3495679;41;9892;-68
2021/07/01 08:39:21;;;;;;;;;4.00;4.00;;;;;25.75;51.57;99148.44;3504576;40;9787;-67
2021/07/01 08:41:57;;;;;;;;;69.50;56.00;;;;;25.97;50.99;99161.03;3495035;41;10379;-69
2021/07/01 08:44:36;;;;;;;;;3.75;3.75;;;;;25.60;51.93;99149.44;3502732;40;14091;-69
2021/07/01 08:47:15;;;;;;;;;3.75;3.75;;;;;26.38;50.63;99153.72;3504607;40;9837;-66
2021/07/01 08:49:53;;;;;;;;;2.00;2.00;;;;;25.88;51.56;99161.44;3503518;40;9686;-69
2021/07/01 08:52:30;;;;;;;;;2.75;2.50;;;;;26.11;50.95;99155.56;3509325;40;9915;-70
2021/07/01 08:55:08;;;;;;;;;2.25;2.00;;;;;26.45;50.52;99158.16;3511993;40;9772;-68
2021/07/01 08:57:37;;;;;;;;;2.50;2.00;;;;;26.22;49.33;99154.94;3502086;40;10054;-66
2021/07/01 09:00:11;;;;;;;;;109.00;105.40;;;;;26.26;49.70;99146.06;3498964;40;10429;-68
2021/07/01 09:02:43;;;;;;;;;4.00;2.75;;;;;26.03;49.65;99151.94;3506530;40;9743;-68
2021/07/01 09:05:19;;;;;;;;;1.75;1.75;;;;;26.47;49.05;99156.06;3487945;40;10627;-68
2021/07/01 09:07:53;;;;;;;;;3.00;2.00;;;;;26.13;50.12;99145.22;3494322;40;9752;-69
2021/07/01 09:10:23;;;;;;;;;4.00;4.00;;;;;26.56;48.18;99144.88;3504760;40;9729;-67
2021/07/01 09:12:57;;;;;;;;;3.00;2.25;;;;;26.18;47.73;99159.19;3506535;40;10310;-64
2021/07/01 09:15:27;;;;;;;;;6.00;2.50;;;;;25.71;50.03;99138.91;3495982;41;9916;-66
2021/07/01 09:17:55;;;;;;;;;3.00;2.25;;;;;26.69;48.54;99150.38;3503680;40;9816;-66
2021/07/01 09:20:38;;;;;;;;;2.00;2.00;;;;;26.69;46.83;99155.88;3502516;40;9856;-66
2021/07/01 09:23:11;;;;;;;;;2.00;2.00;;;;;26.73;46.63;99151.66;3497112;40;9678;-65
2021/07/01 09:25:42;;;;;;;;;0.00;0.00;;;;;26.77;46.57;99158.41;3501065;41;9773;-68
2021/07/01 09:28:09;;;;;;;;;4.25;2.00;;;;;26.25;47.15;99149.03;3494355;41;9815;-65
2021/07/01 09:30:37;;;;;;;;;2.50;2.00;;;;;26.62;47.32;99147.63;3496075;41;9805;-67
2021/07/01 09:33:07;;;;;;;;;1.00;1.00;;;;;26.21;46.81;99154.13;3500344;40;10886;-68
2021/07/01 09:35:37;;;;;;;;;1.00;1.00;;;;;27.03;45.91;99146.53;3506458;40;9771;-69
2021/07/01 09:38:11;;;;;;;;;2.25;2.00;;;;;26.96;46.20;99150.34;3515006;40;9829;-67
2021/07/01 09:40:39;;;;;;;;;2.00;2.00;;;;;26.82;44.51;99149.53;3505003;40;10267;-70
2021/07/01 09:43:08;;;;;;;;;1.75;1.00;;;;;27.40;44.43;99157.09;3495739;40;9700;-68
2021/07/01 09:45:38;;;;;;;;;1.75;1.50;;;;;26.79;45.02;99161.81;3494737;40;9789;-66
2021/07/01 09:48:10;;;;;;;;;1.00;1.00;;;;;26.87;46.28;99152.50;3495741;40;9847;-67
2021/07/01 09:50:45;;;;;;;;;1.00;1.00;;;;;27.17;45.84;99157.53;3496661;41;9772;-66
2021/07/01 09:53:33;;;;;;;;;1.00;1.00;;;;;26.95;46.20;99149.50;3504916;40;10373;-66
2021/07/01 09:56:10;;;;;;;;;1.25;1.00;;;;;26.89;44.04;99151.22;3494482;41;9804;-66
2021/07/01 09:58:50;;;;;;;;;1.00;1.00;;;;;27.67;43.42;99136.59;3498534;40;9808;-64
2021/07/01 10:01:41;;;;;;;;;3.25;1.25;;;;;27.20;45.24;99141.47;3497478;41;10005;-66
2021/07/01 10:04:09;;;;;;;;;1.00;1.00;;;;;27.24;43.72;99150.97;3504349;40;11016;-66
2021/07/01 10:06:38;;;;;;;;;2.50;2.00;;;;;26.77;43.83;99144.66;3512417;40;9893;-65
2021/07/01 10:09:06;;;;;;;;;20.33;16.67;;;;;26.88;44.55;99143.16;3505558;40;10037;-65
2021/07/01 10:11:41;;;;;;;;;1.00;1.00;;;;;27.52;44.01;99145.16;3503834;41;10260;-66
2021/07/01 10:14:15;;;;;;;;;2.00;1.00;;;;;27.55;44.14;99149.41;3500828;40;9947;-66
2021/07/01 10:16:43;;;;;;;;;2.00;1.00;;;;;26.76;45.03;99137.44;3495252;41;9784;-62
2021/07/01 10:19:21;;;;;;;;;3.00;3.00;;;;;27.13;43.87;99137.81;3509285;40;9782;-64
2021/07/01 10:22:06;;;;;;;;;1.75;1.75;;;;;27.24;45.42;99141.84;3504807;41;10050;-65
2021/07/01 10:24:46;;;;;;;;;1.00;1.00;;;;;28.07;42.84;99146.63;3503263;40;9757;-66
2021/07/01 10:27:39;;;;;;;;;0.75;0.00;;;;;27.34;40.88;99143.09;3499803;41;9956;-68
2021/07/01 10:30:22;;;;;;;;;1.50;1.50;;;;;27.24;43.11;99142.69;3504839;40;10475;-68
2021/07/01 10:32:54;;;;;;;;;0.75;0.75;;;;;27.81;42.12;99139.38;3502071;40;9761;-70
2021/07/01 10:35:35;;;;;;;;;1.00;1.00;;;;;27.28;40.92;99149.50;3494781;40;9750;-68
2021/07/01 10:38:13;;;;;;;;;1.00;1.00;;;;;27.56;40.83;99142.81;3497687;40;9756;-68
2021/07/01 10:40:48;;;;;;;;;0.50;0.50;;;;;27.49;41.56;99136.47;3494544;41;9762;-67
2021/07/01 10:43:18;;;;;;;;;1.00;1.00;;;;;27.35;40.86;99132.91;3504312;40;10136;-62
2021/07/01 10:45:59;;;;;;;;;1.00;1.00;;;;;27.34;41.58;99136.75;3495764;40;9763;-66
2021/07/01 10:48:27;;;;;;;;;0.25;0.25;;;;;27.16;41.56;99129.13;3513888;40;9807;-63
2021/07/01 10:51:12;;;;;;;;;1.00;1.00;;;;;27.34;42.37;99137.59;3500488;41;9857;-66
2021/07/01 10:53:43;;;;;;;;;1.00;1.00;;;;;27.62;40.56;99128.16;3492230;40;9791;-66
2021/07/01 10:56:16;;;;;;;;;0.00;0.00;;;;;27.63;40.67;99121.56;3505981;40;9800;-70
2021/07/01 10:58:52;;;;;;;;;1.00;1.00;;;;;27.67;39.69;99117.28;3504551;40;9703;-63
2021/07/01 11:01:26;;;;;;;;;1.00;1.00;;;;;27.86;40.55;99122.97;3507140;40;9927;-67
2021/07/01 11:04:21;;;;;;;;;0.00;0.00;;;;;27.68;39.89;99118.16;3485382;41;9830;-69
2021/07/01 11:07:04;;;;;;;;;1.00;1.00;;;;;27.75;40.29;99119.81;3498567;40;9830;-67
2021/07/01 11:09:44;;;;;;;;;1.75;1.00;;;;;27.68;39.72;99116.25;3502616;40;10675;-66
2021/07/01 11:12:21;;;;;;;;;2.00;0.50;;;;;27.50;39.36;99118.88;3513357;40;9950;-65
2021/07/01 11:14:52;;;;;;;;;0.00;0.00;;;;;27.62;37.66;99119.91;3503421;40;9982;-67
2021/07/01 11:17:39;;;;;;;;;0.00;0.00;;;;;27.44;38.38;99126.13;3499793;41;9775;-64
2021/07/01 11:20:23;;;;;;;;;0.75;0.00;;;;;27.27;38.63;99120.22;3495959;41;10021;-67
2021/07/01 11:22:57;;;;;;;;;1.50;0.00;;;;;27.55;37.55;99121.81;3495052;40;9827;-64
2021/07/01 11:25:34;;;;;;;;;1.00;0.00;;;;;27.45;37.14;99121.44;3494949;40;9774;-66
2021/07/01 11:28:17;;;;;;;;;0.00;0.00;;;;;27.28;36.27;99126.59;3501302;40;9948;-62
2021/07/01 11:30:55;;;;;;;;;2.00;1.00;;;;;27.73;36.50;99124.72;3495558;40;9800;-66
2021/07/01 11:33:22;;;;;;;;;0.00;0.00;;;;;27.57;35.94;99119.69;3494994;41;9784;-66
2021/07/01 11:36:09;;;;;;;;;0.00;0.00;;;;;27.60;34.50;99122.00;3505572;40;9763;-63
2021/07/01 11:38:38;;;;;;;;;0.75;0.75;;;;;27.44;33.27;99137.13;3498559;40;9756;-64
2021/07/01 11:41:07;;;;;;;;;1.00;0.00;;;;;27.48;33.17;99138.38;3495527;41;9767;-64
2021/07/01 11:43:37;;;;;;;;;0.00;0.00;;;;;27.39;34.48;99130.59;3497761;41;9794;-65
2021/07/01 11:46:05;;;;;;;;;0.00;0.00;;;;;27.72;35.66;99128.53;3500084;41;9783;-65
2021/07/01 11:48:35;;;;;;;;;0.00;0.00;;;;;27.70;34.89;99133.44;3498430;40;9966;-64
2021/07/01 11:51:06;;;;;;;;;0.00;0.00;;;;;28.08;35.39;99134.53;3505219;40;9815;-65
2021/07/01 11:53:33;;;;;;;;;0.00;0.00;;;;;28.04;35.76;99131.34;3490486;40;9957;-65